Time;durP1;ratioP1;P1;durP2;ratioP2;P2;SDS_P1;SDS_P2;PMS_P1;PMS_P2;Temp;Humidity;BMP_temperature;BMP_pressure;BME280_temperature;BME280_humidity;BME280_pressure;Samples;Min_cycle;Max_cycle;Signal;HPM_P1;HPM_P2
2023/06/04 00:00:16;;;;;;;6.30;2.40;;;;;;;;;;5034989;28;20036;-78
2023/06/04 00:02:41;;;;;;;3.35;2.25;;;;;;;;;;5016762;28;20271;-77
2023/06/04 00:05:06;;;;;;;4.67;2.40;;;;;;;;;;5034032;28;20029;-78
2023/06/04 00:07:32;;;;;;;3.90;2.45;;;;;;;;;;5034019;28;20254;-78
2023/06/04 00:09:57;;;;;;;8.07;2.60;;;;;;;;;;5033332;28;20134;-78
2023/06/04 00:12:22;;;;;;;5.43;2.40;;;;;;;;;;5033289;28;20041;-77
2023/06/04 00:14:47;;;;;;;5.43;2.40;;;;;;;;;;5032780;28;20266;-77
2023/06/04 00:17:13;;;;;;;4.32;2.70;;;;;;;;;;5033209;28;20430;-77
2023/06/04 00:19:40;;;;;;;6.07;2.22;;;;;;;;;;5033116;28;20025;-77
2023/06/04 00:22:06;;;;;;;4.88;2.55;;;;;;;;;;5033054;28;20500;-77
2023/06/04 00:24:31;;;;;;;4.60;2.50;;;;;;;;;;5033420;28;20034;-78
2023/06/04 00:26:56;;;;;;;4.30;2.47;;;;;;;;;;5033226;28;20076;-77
2023/06/04 00:29:21;;;;;;;4.30;2.60;;;;;;;;;;5032917;28;20036;-77
2023/06/04 00:31:47;;;;;;;4.00;2.30;;;;;;;;;;5032652;28;20337;-77
2023/06/04 00:34:12;;;;;;;5.57;2.77;;;;;;;;;;5032577;28;20819;-77
2023/06/04 00:36:37;;;;;;;3.63;2.53;;;;;;;;;;5032553;28;20672;-77
2023/06/04 00:39:02;;;;;;;4.57;2.90;;;;;;;;;;5015622;28;20036;-77
2023/06/04 00:41:28;;;;;;;5.05;2.70;;;;;;;;;;5032512;28;20030;-77
2023/06/04 00:43:57;;;;;;;5.00;2.88;;;;;;;;;;5032969;28;20112;-77
2023/06/04 00:46:26;;;;;;;6.32;2.78;;;;;;;;;;5033287;28;20018;-77
2023/06/04 00:48:53;;;;;;;6.32;2.90;;;;;;;;;;5015708;28;20021;-77
2023/06/04 00:51:20;;;;;;;4.97;2.50;;;;;;;;;;5032918;28;20025;-77
2023/06/04 00:53:45;;;;;;;5.13;2.28;;;;;;;;;;5032581;28;20025;-77
2023/06/04 00:56:12;;;;;;;4.95;2.67;;;;;;;;;;5031332;28;20025;-77
2023/06/04 00:58:38;;;;;;;4.45;2.35;;;;;;;;;;5032749;28;20033;-77
2023/06/04 01:01:10;;;;;;;3.90;2.25;;;;;;;;;;5018271;28;20021;-77
2023/06/04 01:03:41;;;;;;;7.03;2.50;;;;;;;;;;5036436;28;20064;-77
2023/06/04 01:06:22;;;;;;;4.78;2.50;;;;;;;;;;5036457;28;20112;-77
2023/06/04 01:08:54;;;;;;;2.88;2.17;;;;;;;;;;5036135;28;20104;-77
2023/06/04 01:11:29;;;;;;;6.38;2.30;;;;;;;;;;5036157;28;20025;-77
2023/06/04 01:13:54;;;;;;;5.75;2.28;;;;;;;;;;5036353;28;20025;-77
2023/06/04 01:16:20;;;;;;;3.70;2.10;;;;;;;;;;5036420;28;20399;-78
2023/06/04 01:18:46;;;;;;;3.42;2.10;;;;;;;;;;5036239;28;20028;-76
2023/06/04 01:21:12;;;;;;;3.72;2.30;;;;;;;;;;5018146;28;20021;-78
2023/06/04 01:23:49;;;;;;;3.75;2.20;;;;;;;;;;5035894;28;20032;-77
2023/06/04 01:26:15;;;;;;;3.15;2.20;;;;;;;;;;5018577;28;20377;-77
2023/06/04 01:28:41;;;;;;;8.00;2.63;;;;;;;;;;5035707;28;20028;-76
2023/06/04 01:31:09;;;;;;;5.82;2.05;;;;;;;;;;5035777;28;20100;-76
2023/06/04 01:33:35;;;;;;;3.38;1.92;;;;;;;;;;5036109;28;20029;-77
2023/06/04 01:36:01;;;;;;;3.60;2.10;;;;;;;;;;5017894;28;20036;-78
2023/06/04 01:38:26;;;;;;;4.75;2.05;;;;;;;;;;5035785;28;20029;-78
2023/06/04 01:40:56;;;;;;;7.40;2.10;;;;;;;;;;5036295;28;20101;-78
2023/06/04 01:43:21;;;;;;;4.03;2.30;;;;;;;;;;5019492;28;20033;-78
2023/06/04 01:45:47;;;;;;;3.15;2.10;;;;;;;;;;5037468;28;20100;-78
2023/06/04 01:48:12;;;;;;;3.85;2.20;;;;;;;;;;5019130;28;20049;-78
2023/06/04 01:50:37;;;;;;;7.70;2.22;;;;;;;;;;5036865;28;20473;-78
2023/06/04 01:53:03;;;;;;;3.40;2.08;;;;;;;;;;5018875;28;20087;-76
2023/06/04 01:55:33;;;;;;;4.05;1.92;;;;;;;;;;5035083;28;20045;-77
2023/06/04 01:57:58;;;;;;;3.38;2.03;;;;;;;;;;5017579;28;20491;-77
2023/06/04 02:00:23;;;;;;;3.60;2.08;;;;;;;;;;5035037;28;20025;-77
2023/06/04 02:02:49;;;;;;;4.72;1.95;;;;;;;;;;5017162;28;20060;-77
2023/06/04 02:05:15;;;;;;;3.50;2.17;;;;;;;;;;5035239;28;20025;-77
2023/06/04 02:07:42;;;;;;;4.65;2.15;;;;;;;;;;5017077;28;20063;-77
2023/06/04 02:10:09;;;;;;;3.13;1.90;;;;;;;;;;5016520;28;20491;-77
2023/06/04 02:12:39;;;;;;;3.08;1.80;;;;;;;;;;5034684;28;20499;-76
2023/06/04 02:15:06;;;;;;;4.57;1.77;;;;;;;;;;5016877;28;20029;-76
2023/06/04 02:17:32;;;;;;;5.28;1.85;;;;;;;;;;5017493;28;20090;-76
2023/06/04 02:19:58;;;;;;;4.65;1.80;;;;;;;;;;5016919;28;20531;-76
2023/06/04 02:22:25;;;;;;;5.03;1.73;;;;;;;;;;5034711;28;20108;-76
2023/06/04 02:24:50;;;;;;;2.40;1.60;;;;;;;;;;5033186;28;20029;-77
2023/06/04 02:27:15;;;;;;;3.63;1.70;;;;;;;;;;5015638;28;20460;-77
2023/06/04 02:29:41;;;;;;;3.22;1.90;;;;;;;;;;5032659;28;20563;-76
2023/06/04 02:32:07;;;;;;;2.97;1.77;;;;;;;;;;5034039;28;20112;-76
2023/06/04 02:34:36;;;;;;;3.13;1.90;;;;;;;;;;5035004;28;20032;-77
2023/06/04 02:37:02;;;;;;;2.67;1.75;;;;;;;;;;5034121;28;20679;-77
2023/06/04 02:39:27;;;;;;;3.35;1.70;;;;;;;;;;5033888;28;20017;-76
2023/06/04 02:41:53;;;;;;;3.50;1.90;;;;;;;;;;5034206;28;20124;-77
2023/06/04 02:44:18;;;;;;;3.85;1.90;;;;;;;;;;5034105;28;20075;-77
2023/06/04 02:46:44;;;;;;;3.10;1.70;;;;;;;;;;5034419;28;20025;-77
2023/06/04 02:49:13;;;;;;;4.32;1.90;;;;;;;;;;5033933;28;20087;-77
2023/06/04 02:51:41;;;;;;;3.88;1.88;;;;;;;;;;5033961;28;20075;-77
2023/06/04 02:54:06;;;;;;;3.67;1.70;;;;;;;;;;5033871;28;20556;-77
2023/06/04 02:56:32;;;;;;;3.10;1.75;;;;;;;;;;5033926;28;20159;-77
2023/06/04 02:58:57;;;;;;;3.65;1.90;;;;;;;;;;5034019;28;20033;-77
2023/06/04 03:01:23;;;;;;;5.22;1.70;;;;;;;;;;5033840;28;20044;-77
2023/06/04 03:03:49;;;;;;;3.83;1.85;;;;;;;;;;5033862;28;20427;-77
2023/06/04 03:06:15;;;;;;;5.50;2.10;;;;;;;;;;5033965;28;20031;-77
2023/06/04 03:08:41;;;;;;;2.97;1.95;;;;;;;;;;5033692;28;20120;-77
2023/06/04 03:11:06;;;;;;;2.80;1.50;;;;;;;;;;5033748;28;20105;-76
2023/06/04 03:13:32;;;;;;;3.88;1.75;;;;;;;;;;5033542;28;20036;-76
2023/06/04 03:16:00;;;;;;;3.05;1.67;;;;;;;;;;5034016;28;20037;-77
2023/06/04 03:18:26;;;;;;;4.95;1.90;;;;;;;;;;5035116;28;20591;-78
2023/06/04 03:20:51;;;;;;;4.03;1.90;;;;;;;;;;5035563;28;20050;-78
2023/06/04 03:23:16;;;;;;;3.13;1.80;;;;;;;;;;5034584;28;20017;-78
2023/06/04 03:25:42;;;;;;;2.90;1.77;;;;;;;;;;5034991;28;20499;-77
2023/06/04 03:28:07;;;;;;;3.83;1.80;;;;;;;;;;5033482;28;20056;-77
2023/06/04 03:30:32;;;;;;;2.43;1.60;;;;;;;;;;5015486;28;20322;-76
2023/06/04 03:32:57;;;;;;;5.40;2.03;;;;;;;;;;5033267;28;20313;-77
2023/06/04 03:35:22;;;;;;;3.30;1.67;;;;;;;;;;5033523;28;20287;-77
2023/06/04 03:37:48;;;;;;;2.90;2.00;;;;;;;;;;5033175;28;20277;-77
2023/06/04 03:40:13;;;;;;;2.97;1.67;;;;;;;;;;5034637;28;20262;-77
2023/06/04 03:42:38;;;;;;;4.45;1.80;;;;;;;;;;5034693;28;20274;-77
2023/06/04 03:45:04;;;;;;;5.13;1.90;;;;;;;;;;5016262;28;20026;-76
2023/06/04 03:47:30;;;;;;;3.13;2.00;;;;;;;;;;5016060;28;20242;-77
2023/06/04 03:49:55;;;;;;;2.83;1.65;;;;;;;;;;5033246;28;20096;-77
2023/06/04 03:52:20;;;;;;;2.45;1.73;;;;;;;;;;5015223;28;20028;-77
2023/06/04 03:54:45;;;;;;;2.63;1.67;;;;;;;;;;5033085;28;20147;-77
2023/06/04 03:57:11;;;;;;;2.63;1.60;;;;;;;;;;5033807;28;20290;-77
2023/06/04 03:59:36;;;;;;;7.22;1.73;;;;;;;;;;5033113;28;20286;-77
2023/06/04 04:02:01;;;;;;;4.00;1.63;;;;;;;;;;5033000;28;20076;-77
2023/06/04 04:04:26;;;;;;;3.13;1.70;;;;;;;;;;5033109;28;20270;-77
2023/06/04 04:06:52;;;;;;;4.57;1.80;;;;;;;;;;5033331;28;20333;-77
2023/06/04 04:09:17;;;;;;;4.00;1.73;;;;;;;;;;5015008;28;20279;-77
2023/06/04 04:11:42;;;;;;;3.40;1.57;;;;;;;;;;5015027;28;20048;-77
2023/06/04 04:14:07;;;;;;;3.70;1.50;;;;;;;;;;5034281;28;20254;-80
2023/06/04 04:16:32;;;;;;;2.30;1.63;;;;;;;;;;5037744;28;20285;-80
2023/06/04 04:18:58;;;;;;;3.33;1.60;;;;;;;;;;5020231;28;20255;-80
2023/06/04 04:21:23;;;;;;;9.73;1.90;;;;;;;;;;5038012;28;20124;-79
2023/06/04 04:23:49;;;;;;;3.33;1.80;;;;;;;;;;5037710;28;20017;-79
2023/06/04 04:26:16;;;;;;;2.95;1.73;;;;;;;;;;5038904;28;20032;-79
2023/06/04 04:28:42;;;;;;;2.70;1.88;;;;;;;;;;5019929;28;20029;-80
2023/06/04 04:31:08;;;;;;;2.92;1.70;;;;;;;;;;5037972;28;20121;-82
2023/06/04 04:33:36;;;;;;;3.03;1.85;;;;;;;;;;5037527;28;20017;-82
2023/06/04 04:36:02;;;;;;;3.35;1.70;;;;;;;;;;5023486;28;20468;-80
2023/06/04 04:38:28;;;;;;;2.67;2.10;;;;;;;;;;5022795;28;20061;-81
2023/06/04 04:40:53;;;;;;;5.47;1.77;;;;;;;;;;5022843;28;20049;-80
2023/06/04 04:43:32;;;;;;;3.65;1.48;;;;;;;;;;5022829;28;20033;-81
2023/06/04 04:45:57;;;;;;;2.17;1.30;;;;;;;;;;5022438;28;20057;-80
2023/06/04 04:48:22;;;;;;;4.15;1.83;;;;;;;;;;5040498;28;20025;-81
2023/06/04 04:50:47;;;;;;;3.13;1.93;;;;;;;;;;5041544;28;20021;-81
2023/06/04 04:53:12;;;;;;;2.57;1.53;;;;;;;;;;5041318;28;20258;-81
2023/06/04 04:55:38;;;;;;;2.53;1.50;;;;;;;;;;5022750;28;20259;-81
2023/06/04 04:58:03;;;;;;;4.28;1.60;;;;;;;;;;5040880;28;20265;-79
2023/06/04 05:00:29;;;;;;;3.83;1.90;;;;;;;;;;5040372;28;20021;-81
2023/06/04 05:02:55;;;;;;;2.72;1.70;;;;;;;;;;5040088;28;20028;-80
2023/06/04 05:05:20;;;;;;;3.27;1.90;;;;;;;;;;5022462;28;20026;-79
2023/06/04 05:07:45;;;;;;;2.58;1.67;;;;;;;;;;5039125;28;20269;-81
2023/06/04 05:10:10;;;;;;;2.07;1.53;;;;;;;;;;5022362;28;20032;-81
2023/06/04 05:12:36;;;;;;;3.15;1.70;;;;;;;;;;5022936;28;20341;-80
2023/06/04 05:15:01;;;;;;;2.83;1.60;;;;;;;;;;5040534;28;20500;-81
2023/06/04 05:17:29;;;;;;;2.67;1.70;;;;;;;;;;5040433;28;20280;-79
2023/06/04 05:20:04;;;;;;;4.78;1.70;;;;;;;;;;5040100;28;20250;-81
2023/06/04 05:22:29;;;;;;;4.00;1.73;;;;;;;;;;5040683;28;20021;-81
2023/06/04 05:24:55;;;;;;;2.97;1.70;;;;;;;;;;5040366;28;20040;-79
2023/06/04 05:27:22;;;;;;;3.78;1.85;;;;;;;;;;5022708;28;20026;-79
2023/06/04 05:29:47;;;;;;;3.03;1.65;;;;;;;;;;5041106;28;20364;-79
2023/06/04 05:32:12;;;;;;;2.70;1.60;;;;;;;;;;5022480;28;20073;-80
2023/06/04 05:34:39;;;;;;;4.43;1.90;;;;;;;;;;5022869;28;20092;-80
2023/06/04 05:37:08;;;;;;;3.00;1.80;;;;;;;;;;5041599;28;20266;-80
2023/06/04 05:39:33;;;;;;;2.83;1.58;;;;;;;;;;5041761;28;20020;-79
2023/06/04 05:41:58;;;;;;;3.90;2.03;;;;;;;;;;5039282;28;20029;-79
2023/06/04 05:44:23;;;;;;;3.13;1.60;;;;;;;;;;5039112;28;20266;-79
2023/06/04 05:46:49;;;;;;;7.32;1.40;;;;;;;;;;5038780;28;20258;-79
2023/06/04 05:49:14;;;;;;;7.33;1.63;;;;;;;;;;5038986;28;20025;-79
2023/06/04 05:51:39;;;;;;;2.25;1.50;;;;;;;;;;5039008;28;20255;-79
2023/06/04 05:54:04;;;;;;;2.70;1.50;;;;;;;;;;5038370;28;20024;-79
2023/06/04 05:56:30;;;;;;;3.50;1.77;;;;;;;;;;5021764;28;20290;-81
2023/06/04 05:58:55;;;;;;;2.13;1.40;;;;;;;;;;5039927;28;20025;-81
2023/06/04 06:01:21;;;;;;;2.22;1.63;;;;;;;;;;5039420;28;20021;-81
2023/06/04 06:03:46;;;;;;;3.25;1.30;;;;;;;;;;5020920;28;20506;-81
2023/06/04 06:06:12;;;;;;;6.33;1.40;;;;;;;;;;5039010;28;20029;-81
2023/06/04 06:08:37;;;;;;;1.77;1.27;;;;;;;;;;5022208;28;20262;-81
2023/06/04 06:11:04;;;;;;;3.28;1.55;;;;;;;;;;5021872;28;20098;-80
2023/06/04 06:13:30;;;;;;;2.42;1.55;;;;;;;;;;5021147;28;20381;-83
2023/06/04 06:15:55;;;;;;;2.65;1.50;;;;;;;;;;5035099;28;20033;-77
2023/06/04 06:18:21;;;;;;;2.95;1.52;;;;;;;;;;5036213;28;20039;-76
2023/06/04 06:20:46;;;;;;;3.38;1.55;;;;;;;;;;5034862;28;20017;-77
2023/06/04 06:23:11;;;;;;;2.00;1.40;;;;;;;;;;5034617;28;20044;-76
2023/06/04 06:25:40;;;;;;;1.80;1.30;;;;;;;;;;5034595;28;20258;-76
2023/06/04 06:28:05;;;;;;;3.20;1.60;;;;;;;;;;5036587;28;20387;-78
2023/06/04 06:30:30;;;;;;;4.25;1.30;;;;;;;;;;5018592;28;20119;-76
2023/06/04 06:32:56;;;;;;;4.53;1.60;;;;;;;;;;5034532;28;20116;-76
2023/06/04 06:35:21;;;;;;;5.00;1.55;;;;;;;;;;5034650;28;20064;-76
2023/06/04 06:37:46;;;;;;;4.07;1.58;;;;;;;;;;5034819;28;20032;-77
2023/06/04 06:40:11;;;;;;;3.97;1.93;;;;;;;;;;5018415;28;20056;-81
2023/06/04 06:42:37;;;;;;;5.53;1.90;;;;;;;;;;5037980;28;20262;-81
2023/06/04 06:45:02;;;;;;;3.78;1.70;;;;;;;;;;5020626;28;20111;-80
2023/06/04 06:47:28;;;;;;;2.05;1.40;;;;;;;;;;5038775;28;20037;-81
2023/06/04 06:49:54;;;;;;;5.38;1.60;;;;;;;;;;5035763;28;20401;-77
2023/06/04 06:52:19;;;;;;;5.75;1.83;;;;;;;;;;5016138;28;20026;-76
2023/06/04 06:54:45;;;;;;;3.00;1.50;;;;;;;;;;5033813;28;20484;-76
2023/06/04 06:57:11;;;;;;;7.40;1.60;;;;;;;;;;5016272;28;20025;-76
2023/06/04 06:59:41;;;;;;;2.95;1.50;;;;;;;;;;5034102;28;20096;-76
2023/06/04 07:02:07;;;;;;;2.38;1.55;;;;;;;;;;5033670;28;20029;-76
2023/06/04 07:04:32;;;;;;;3.97;1.40;;;;;;;;;;5033887;28;20096;-76
2023/06/04 07:06:58;;;;;;;5.53;1.33;;;;;;;;;;5015976;28;20519;-76
2023/06/04 07:09:24;;;;;;;5.23;1.30;;;;;;;;;;5033938;28;20089;-83
2023/06/04 07:11:49;;;;;;;2.78;1.50;;;;;;;;;;5034320;28;20259;-77
2023/06/04 07:14:14;;;;;;;2.65;1.60;;;;;;;;;;5033376;28;20096;-77
2023/06/04 07:16:40;;;;;;;3.15;1.73;;;;;;;;;;5033487;28;20029;-77
2023/06/04 07:19:05;;;;;;;2.28;1.27;;;;;;;;;;5034386;28;20018;-77
2023/06/04 07:21:30;;;;;;;2.90;1.60;;;;;;;;;;5015748;28;20033;-76
2023/06/04 07:23:55;;;;;;;2.72;1.60;;;;;;;;;;5034959;28;20398;-77
2023/06/04 07:26:21;;;;;;;2.20;1.35;;;;;;;;;;5034098;28;20063;-76
2023/06/04 07:28:46;;;;;;;3.33;1.45;;;;;;;;;;5033352;28;20029;-76
2023/06/04 07:31:15;;;;;;;2.57;1.50;;;;;;;;;;5033221;28;20029;-77
2023/06/04 07:33:43;;;;;;;1.85;1.30;;;;;;;;;;5033371;28;20286;-77
2023/06/04 07:36:12;;;;;;;2.35;1.50;;;;;;;;;;5033398;28;20493;-77
2023/06/04 07:38:37;;;;;;;2.08;1.35;;;;;;;;;;5034077;28;20021;-77
2023/06/04 07:41:03;;;;;;;3.60;1.40;;;;;;;;;;5034942;28;20105;-77
2023/06/04 07:43:28;;;;;;;1.87;1.40;;;;;;;;;;5015349;28;20037;-77
2023/06/04 07:45:53;;;;;;;1.97;1.40;;;;;;;;;;5033190;28;20274;-77
2023/06/04 07:48:18;;;;;;;2.55;1.35;;;;;;;;;;5033604;28;20282;-77
2023/06/04 07:50:43;;;;;;;2.80;1.30;;;;;;;;;;5016952;28;20032;-77
2023/06/04 07:53:09;;;;;;;1.93;1.40;;;;;;;;;;5015239;28;20258;-77
2023/06/04 07:55:35;;;;;;;5.60;1.13;;;;;;;;;;5015835;28;20259;-77
2023/06/04 07:58:03;;;;;;;2.15;1.30;;;;;;;;;;5016103;28;20269;-77
2023/06/04 08:00:29;;;;;;;3.45;1.30;;;;;;;;;;5033626;28;20044;-77
2023/06/04 08:02:54;;;;;;;1.92;1.30;;;;;;;;;;5031865;28;20436;-76
2023/06/04 08:05:19;;;;;;;2.35;1.40;;;;;;;;;;5033951;28;20025;-77
2023/06/04 08:07:46;;;;;;;3.25;1.63;;;;;;;;;;5033831;28;20017;-77
2023/06/04 08:10:11;;;;;;;4.28;1.25;;;;;;;;;;5033040;28;20099;-77
2023/06/04 08:12:36;;;;;;;4.00;1.48;;;;;;;;;;5015825;28;20064;-77
2023/06/04 08:15:03;;;;;;;2.23;1.40;;;;;;;;;;5033535;28;20037;-77
2023/06/04 08:17:28;;;;;;;4.38;1.38;;;;;;;;;;5034163;28;20257;-77
2023/06/04 08:19:53;;;;;;;1.77;1.03;;;;;;;;;;5034056;28;20104;-77
2023/06/04 08:22:19;;;;;;;2.87;1.27;;;;;;;;;;5032765;28;20297;-77
2023/06/04 08:24:45;;;;;;;3.70;1.20;;;;;;;;;;5033838;28;20254;-77
2023/06/04 08:27:10;;;;;;;1.70;1.20;;;;;;;;;;5016575;28;20026;-78
2023/06/04 08:29:36;;;;;;;4.13;1.50;;;;;;;;;;5035342;28;20083;-78
2023/06/04 08:32:02;;;;;;;1.73;1.10;;;;;;;;;;5036165;28;20024;-80
2023/06/04 08:34:28;;;;;;;2.67;1.05;;;;;;;;;;5037082;28;20037;-81
2023/06/04 08:36:53;;;;;;;1.67;1.23;;;;;;;;;;5037263;28;20059;-80
2023/06/04 08:39:18;;;;;;;2.87;0.93;;;;;;;;;;5036383;28;20530;-80
2023/06/04 08:41:47;;;;;;;1.80;1.00;;;;;;;;;;5037412;28;20325;-82
2023/06/04 08:44:12;;;;;;;1.55;0.90;;;;;;;;;;5018666;28;20025;-81
2023/06/04 08:46:42;;;;;;;2.65;1.20;;;;;;;;;;5017811;28;20025;-77
2023/06/04 08:49:08;;;;;;;3.92;1.00;;;;;;;;;;5032737;28;20079;-77
2023/06/04 08:51:37;;;;;;;1.67;1.10;;;;;;;;;;5014978;28;20480;-77
2023/06/04 08:54:07;;;;;;;2.13;1.00;;;;;;;;;;5014907;28;20102;-77
2023/06/04 08:56:36;;;;;;;3.50;0.90;;;;;;;;;;5033011;28;20079;-77
2023/06/04 08:59:03;;;;;;;2.22;0.88;;;;;;;;;;5036212;28;20468;-81
2023/06/04 09:01:33;;;;;;;2.85;1.00;;;;;;;;;;5035921;28;20032;-81
2023/06/04 09:04:04;;;;;;;1.30;0.80;;;;;;;;;;5037099;28;20024;-79
2023/06/04 09:06:30;;;;;;;3.40;1.08;;;;;;;;;;5023915;28;20031;-80
2023/06/04 09:08:58;;;;;;;1.42;1.00;;;;;;;;;;5038031;28;20055;-80
2023/06/04 09:11:33;;;;;;;1.15;0.88;;;;;;;;;;5038574;28;20030;-79
2023/06/04 09:14:02;;;;;;;2.25;1.00;;;;;;;;;;5038101;28;20064;-79
2023/06/04 09:16:33;;;;;;;3.65;1.13;;;;;;;;;;5038434;28;20037;-80
2023/06/04 09:19:00;;;;;;;0.95;0.80;;;;;;;;;;5037502;28;20025;-82
2023/06/04 09:25:09;;;;;;;;;;;;;;;;;;;;;
2023/06/04 09:31:55;;;;;;;2.00;1.00;;;;;;;;;;5036757;28;20052;-81
2023/06/04 09:34:35;;;;;;;3.63;0.90;;;;;;;;;;5019855;28;20049;-81
2023/06/04 09:37:19;;;;;;;1.75;0.88;;;;;;;;;;5025147;28;20045;-84
2023/06/04 09:43:10;;;;;;;1.55;0.95;;;;;;;;;;4963331;28;20038;-80
2023/06/04 09:45:35;;;;;;;5.10;1.00;;;;;;;;;;5037595;28;20068;-83
2023/06/04 09:48:02;;;;;;;1.40;1.02;;;;;;;;;;5021783;28;20052;-80
2023/06/04 09:50:41;;;;;;;2.17;1.48;;;;;;;;;;5039223;28;20030;-80
2023/06/04 09:53:15;;;;;;;3.20;1.35;;;;;;;;;;5038919;28;20029;-82
2023/06/04 09:55:42;;;;;;;;;;;;;;;;;;5038309;28;20029;-81
2023/06/04 09:58:11;;;;;;;5.93;1.00;;;;;;;;;;5038508;28;19971;-81
2023/06/04 10:00:37;;;;;;;2.00;1.00;;;;;;;;;;5037896;28;20092;-80
2023/06/04 10:03:06;;;;;;;1.38;1.00;;;;;;;;;;5038423;28;20448;-81
2023/06/04 10:05:33;;;;;;;1.92;1.13;;;;;;;;;;5020362;28;20021;-79
2023/06/04 10:08:02;;;;;;;5.88;1.38;;;;;;;;;;5038646;28;20057;-80
2023/06/04 10:10:28;;;;;;;1.98;0.90;;;;;;;;;;5038035;28;20022;-83
2023/06/04 10:13:02;;;;;;;1.77;0.98;;;;;;;;;;5038852;28;20032;-80
2023/06/04 10:15:28;;;;;;;4.18;1.20;;;;;;;;;;5038370;28;20445;-79
2023/06/04 10:17:55;;;;;;;3.00;1.23;;;;;;;;;;5038029;28;20029;-81
2023/06/04 10:20:21;;;;;;;1.58;1.00;;;;;;;;;;5038406;28;20080;-81
2023/06/04 10:22:47;;;;;;;3.10;0.98;;;;;;;;;;5038749;28;20017;-80
2023/06/04 10:25:13;;;;;;;2.20;0.90;;;;;;;;;;5038520;28;20033;-80
2023/06/04 10:27:39;;;;;;;1.05;0.95;;;;;;;;;;5020795;28;20022;-81
2023/06/04 10:30:05;;;;;;;2.70;1.50;;;;;;;;;;5021276;28;20029;-83
2023/06/04 10:32:31;;;;;;;2.97;2.05;;;;;;;;;;5038905;28;20104;-81
2023/06/04 10:35:00;;;;;;;4.15;1.30;;;;;;;;;;5020266;28;20021;-81
2023/06/04 10:37:26;;;;;;;2.05;1.20;;;;;;;;;;5020112;28;20030;-81
2023/06/04 10:39:53;;;;;;;1.70;1.10;;;;;;;;;;5038219;28;20077;-81
2023/06/04 10:42:20;;;;;;;2.42;1.23;;;;;;;;;;5036372;28;20036;-80
2023/06/04 10:44:50;;;;;;;6.05;1.00;;;;;;;;;;5021983;28;20079;-81
2023/06/04 10:47:23;;;;;;;1.70;1.00;;;;;;;;;;5021030;28;20028;-78
2023/06/04 10:49:53;;;;;;;2.10;1.10;;;;;;;;;;5035971;28;20025;-74
2023/06/04 10:52:22;;;;;;;3.03;1.10;;;;;;;;;;5034867;28;20021;-76
2023/06/04 10:54:53;;;;;;;4.18;1.73;;;;;;;;;;5034564;28;20030;-76
2023/06/04 10:57:18;;;;;;;3.53;0.90;;;;;;;;;;5037433;28;20025;-75
2023/06/04 10:59:57;;;;;;;1.95;1.10;;;;;;;;;;5038000;28;20538;-78
2023/06/04 11:02:23;;;;;;;2.15;1.20;;;;;;;;;;5035519;28;20025;-78
2023/06/04 11:05:09;;;;;;;1.27;0.90;;;;;;;;;;5034364;28;20527;-77
2023/06/04 11:07:48;;;;;;;2.22;1.30;;;;;;;;;;5034060;28;20049;-77
2023/06/04 11:10:15;;;;;;;4.35;1.80;;;;;;;;;;5032205;28;20026;-77
2023/06/04 11:12:44;;;;;;;2.28;0.95;;;;;;;;;;5034123;28;20039;-77
2023/06/04 11:15:10;;;;;;;1.60;1.00;;;;;;;;;;5016722;28;20511;-77
2023/06/04 11:17:36;;;;;;;1.95;1.20;;;;;;;;;;5033716;28;20021;-77
2023/06/04 11:20:01;;;;;;;1.40;0.88;;;;;;;;;;5034127;28;20021;-77
2023/06/04 11:22:26;;;;;;;4.20;1.20;;;;;;;;;;5033947;28;20025;-77
2023/06/04 11:25:00;;;;;;;2.58;1.25;;;;;;;;;;5015951;28;20254;-77
2023/06/04 11:27:26;;;;;;;5.28;1.10;;;;;;;;;;5016838;28;20024;-76
2023/06/04 11:29:52;;;;;;;4.50;1.92;;;;;;;;;;5033994;28;20396;-78
2023/06/04 11:32:24;;;;;;;1.95;1.40;;;;;;;;;;5034529;28;20026;-77
2023/06/04 11:34:49;;;;;;;1.80;1.27;;;;;;;;;;5033379;28;20033;-76
2023/06/04 11:37:15;;;;;;;3.95;1.20;;;;;;;;;;5035577;28;20102;-77
2023/06/04 11:39:42;;;;;;;3.08;1.20;;;;;;;;;;5035216;28;20022;-78
2023/06/04 11:42:08;;;;;;;1.58;1.10;;;;;;;;;;5034821;28;20021;-78
2023/06/04 11:44:34;;;;;;;5.47;1.60;;;;;;;;;;5034789;28;20041;-78
2023/06/04 11:46:59;;;;;;;5.28;1.30;;;;;;;;;;5035221;28;20029;-78
2023/06/04 11:49:26;;;;;;;3.97;1.25;;;;;;;;;;5034191;28;20105;-77
2023/06/04 11:51:52;;;;;;;1.88;1.00;;;;;;;;;;5033106;28;20049;-77
2023/06/04 11:54:20;;;;;;;6.15;1.30;;;;;;;;;;5032850;28;20120;-77
2023/06/04 11:56:48;;;;;;;1.95;1.10;;;;;;;;;;5015171;28;20029;-77
2023/06/04 11:59:13;;;;;;;2.05;1.13;;;;;;;;;;5033493;28;20060;-78
2023/06/04 12:01:41;;;;;;;6.10;1.52;;;;;;;;;;5035069;28;20093;-79
2023/06/04 12:04:17;;;;;;;2.97;1.20;;;;;;;;;;5016269;28;20052;-78
2023/06/04 12:06:53;;;;;;;2.03;1.10;;;;;;;;;;5017920;28;20400;-78
2023/06/04 12:09:24;;;;;;;3.38;1.33;;;;;;;;;;5034456;28;20082;-77
2023/06/04 12:11:49;;;;;;;2.38;1.10;;;;;;;;;;5032924;28;20037;-77
2023/06/04 12:14:18;;;;;;;3.58;1.00;;;;;;;;;;5032913;28;20029;-76
2023/06/04 12:16:44;;;;;;;3.90;1.10;;;;;;;;;;5032580;28;20033;-77
2023/06/04 12:19:11;;;;;;;2.45;1.33;;;;;;;;;;5032699;28;20029;-77
2023/06/04 12:21:38;;;;;;;5.53;1.58;;;;;;;;;;5014991;28;20040;-77
2023/06/04 12:24:11;;;;;;;1.33;0.93;;;;;;;;;;5015017;28;20115;-77
2023/06/04 12:26:40;;;;;;;5.47;1.10;;;;;;;;;;5015149;28;20033;-77
2023/06/04 12:29:13;;;;;;;7.85;1.30;;;;;;;;;;5032509;28;20488;-77
2023/06/04 12:31:43;;;;;;;2.30;1.15;;;;;;;;;;5033069;28;20079;-77
2023/06/04 12:34:10;;;;;;;7.50;1.38;;;;;;;;;;5014804;28;20572;-77
2023/06/04 12:36:35;;;;;;;1.67;1.10;;;;;;;;;;5032574;28;20442;-77
2023/06/04 12:39:02;;;;;;;4.90;1.30;;;;;;;;;;5032708;28;20033;-77
2023/06/04 12:41:28;;;;;;;3.22;1.40;;;;;;;;;;5014396;28;20076;-76
2023/06/04 12:43:54;;;;;;;2.55;1.10;;;;;;;;;;5032616;28;20037;-76
2023/06/04 12:46:20;;;;;;;2.90;1.10;;;;;;;;;;5033138;28;20451;-77
2023/06/04 12:48:45;;;;;;;1.85;1.02;;;;;;;;;;5032511;28;20029;-77
2023/06/04 12:51:11;;;;;;;3.97;1.08;;;;;;;;;;5014981;28;20045;-76
2023/06/04 12:53:40;;;;;;;3.17;1.30;;;;;;;;;;5033076;28;20071;-78
2023/06/04 12:56:05;;;;;;;3.78;1.38;;;;;;;;;;5017554;28;20025;-77
2023/06/04 12:58:31;;;;;;;6.75;1.10;;;;;;;;;;5036235;28;20439;-77
2023/06/04 13:00:56;;;;;;;1.60;1.23;;;;;;;;;;5018570;28;20024;-76
2023/06/04 13:03:22;;;;;;;2.30;1.30;;;;;;;;;;5036147;28;20060;-77
2023/06/04 13:05:47;;;;;;;3.10;1.30;;;;;;;;;;5036146;28;20269;-77
2023/06/04 13:08:12;;;;;;;1.80;1.10;;;;;;;;;;5018328;28;20251;-77
2023/06/04 13:10:37;;;;;;;2.67;1.30;;;;;;;;;;5037940;28;20025;-76
2023/06/04 13:13:03;;;;;;;3.47;1.20;;;;;;;;;;5035915;28;20875;-77
2023/06/04 13:15:29;;;;;;;4.17;1.17;;;;;;;;;;5035790;28;20610;-77
2023/06/04 13:17:54;;;;;;;1.60;1.10;;;;;;;;;;5036355;28;20656;-77
2023/06/04 13:20:20;;;;;;;2.10;1.00;;;;;;;;;;5035842;28;20025;-77
2023/06/04 13:22:45;;;;;;;4.20;1.08;;;;;;;;;;5036263;28;20017;-77
2023/06/04 13:25:10;;;;;;;2.30;1.17;;;;;;;;;;5036101;28;20018;-76
2023/06/04 13:27:35;;;;;;;1.83;1.13;;;;;;;;;;5035803;28;20278;-77
2023/06/04 13:30:00;;;;;;;1.30;1.10;;;;;;;;;;5036251;28;20278;-78
2023/06/04 13:32:26;;;;;;;5.10;1.20;;;;;;;;;;5035947;28;20361;-77
2023/06/04 13:34:51;;;;;;;2.23;1.30;;;;;;;;;;5035540;28;20320;-76
2023/06/04 13:37:16;;;;;;;2.10;1.17;;;;;;;;;;5017720;28;20258;-76
2023/06/04 13:39:41;;;;;;;1.57;1.27;;;;;;;;;;5035644;28;20254;-77
2023/06/04 13:42:07;;;;;;;2.17;1.00;;;;;;;;;;5035720;28;20324;-77
2023/06/04 13:44:32;;;;;;;3.97;1.58;;;;;;;;;;5017669;28;20274;-77
2023/06/04 13:46:58;;;;;;;3.10;1.40;;;;;;;;;;5017506;28;20052;-76
2023/06/04 13:49:24;;;;;;;1.55;1.00;;;;;;;;;;5035432;28;20690;-77
2023/06/04 13:51:49;;;;;;;1.77;1.00;;;;;;;;;;5035454;28;20111;-77
2023/06/04 13:54:14;;;;;;;1.77;1.03;;;;;;;;;;5035148;28;20263;-77
2023/06/04 13:56:39;;;;;;;1.67;1.03;;;;;;;;;;5017338;28;20321;-77
2023/06/04 13:59:06;;;;;;;2.57;1.27;;;;;;;;;;5035438;28;20258;-77
2023/06/04 14:01:31;;;;;;;4.78;1.40;;;;;;;;;;5035114;28;20324;-77
2023/06/04 14:03:58;;;;;;;2.55;1.38;;;;;;;;;;5034842;28;20025;-77
2023/06/04 14:06:23;;;;;;;4.38;1.20;;;;;;;;;;5016121;28;20480;-77
2023/06/04 14:08:48;;;;;;;2.13;1.10;;;;;;;;;;5034993;28;20036;-77
2023/06/04 14:11:14;;;;;;;3.30;1.40;;;;;;;;;;5016922;28;20030;-77
2023/06/04 14:13:41;;;;;;;2.47;1.30;;;;;;;;;;5017178;28;20267;-77
2023/06/04 14:16:06;;;;;;;1.88;1.15;;;;;;;;;;5034609;28;20407;-76
2023/06/04 14:18:31;;;;;;;2.50;1.20;;;;;;;;;;5016973;28;20032;-77
2023/06/04 14:20:56;;;;;;;2.57;1.17;;;;;;;;;;5035379;28;20681;-77
2023/06/04 14:23:21;;;;;;;2.73;1.23;;;;;;;;;;5017675;28;20269;-77
2023/06/04 14:25:47;;;;;;;2.47;1.30;;;;;;;;;;5035685;28;20741;-77
2023/06/04 14:28:12;;;;;;;1.97;1.20;;;;;;;;;;5034927;28;20344;-77
2023/06/04 14:30:37;;;;;;;2.60;1.00;;;;;;;;;;5017026;28;20326;-77
2023/06/04 14:33:03;;;;;;;1.73;1.13;;;;;;;;;;5035243;28;20258;-77
2023/06/04 14:35:28;;;;;;;3.53;1.20;;;;;;;;;;5033605;28;20259;-77
2023/06/04 14:37:53;;;;;;;3.28;1.20;;;;;;;;;;5034519;28;20476;-77
2023/06/04 14:40:19;;;;;;;1.57;1.03;;;;;;;;;;5016733;28;20023;-77
2023/06/04 14:42:44;;;;;;;2.40;1.08;;;;;;;;;;5034855;28;20253;-76
2023/06/04 14:45:10;;;;;;;2.80;1.30;;;;;;;;;;5016667;28;20059;-76
2023/06/04 14:47:35;;;;;;;3.85;1.23;;;;;;;;;;5016586;28;20056;-77
2023/06/04 14:50:00;;;;;;;2.10;1.20;;;;;;;;;;5034349;28;20104;-77